This is the latest recevied weather packets stored in our database for station/object LRAR. If no packets are shown the sender has not sent any weather packets the latest 1 day(s).
| Time | Temp. | Humidity | Pressure | Rain* | Wind** | Luminosity | Snow |
|---|---|---|---|---|---|---|---|
| 1778046520 | 13.89° C | 72% | 1014 hPa | - | - | - | - |
| 1778045627 | 13.89° C | 72% | 1014 hPa | - | - | - | - |
| 1778044719 | 12.78° C | 72% | 1014 hPa | - | - | - | - |
| 1778042934 | 12.22° C | 77% | 1014 hPa | - | - | - | - |
| 1778042022 | 12.22° C | 77% | 1014 hPa | - | - | - | - |
| 1778041119 | 11.11° C | 77% | 1013 hPa | - | - | - | - |
| 1778040218 | 11.11° C | 77% | 1013 hPa | - | - | - | - |
| 1778039319 | 10° C | 76% | 1013 hPa | - | - | - | - |
| 1778038418 | 10° C | 76% | 1013 hPa | - | - | - | - |
| 1778037518 | 8.89° C | 82% | 1013 hPa | - | - | - | - |
| 1778036618 | 8.89° C | 82% | 1013 hPa | - | - | - | - |
| 1778035718 | 8.89° C | 82% | 1013 hPa | - | - | - | - |
| 1778034818 | 8.89° C | 82% | 1013 hPa | - | - | - | - |
| 1778033018 | 10° C | 76% | 1013 hPa | - | - | - | - |
| 1778032118 | 11.11° C | 67% | 1013 hPa | - | - | - | - |
| 1778031218 | 11.11° C | 67% | 1013 hPa | - | - | - | - |
| 1778030319 | 10° C | 76% | 1013 hPa | - | - | - | - |
| 1778029418 | 10° C | 76% | 1013 hPa | - | - | - | - |
| 1778027699 | 10° C | 71% | 1012 hPa | - | - | - | - |
| 1778026719 | 10° C | 71% | 1012 hPa | - | - | - | - |
| 1778025819 | 10° C | 71% | 1012 hPa | - | - | - | - |
| 1778024018 | 11.11° C | 67% | 1012 hPa | - | - | - | - |
| 1778022219 | 12.78° C | 55% | 1012 hPa | - | - | - | - |
| 1778021319 | 12.22° C | 58% | 1012 hPa | - | - | - | - |
| 1778019516 | 12.78° C | 59% | 1012 hPa | - | - | - | - |
* Rain since midnight (hover to see other rain measurements)
** Current wind speed in m/s (hover to see current wind gust speed)